Time;durP1;ratioP1;P1;durP2;ratioP2;P2;SDS_P1;SDS_P2;PMS_P1;PMS_P2;Temp;Humidity;BMP_temperature;BMP_pressure;BME280_temperature;BME280_humidity;BME280_pressure;Samples;Min_cycle;Max_cycle;Signal;HPM_P1;HPM_P2
2022/04/06 00:02:23;;;;;;;7.63;1.98;;;20.20;99.90;;;;;;5018434;28;20018;-68
2022/04/06 00:04:50;;;;;;;4.50;2.00;;;20.30;99.90;;;;;;5016958;28;20037;-68
2022/04/06 00:07:17;;;;;;;2.70;1.60;;;20.30;99.90;;;;;;5018734;28;20044;-68
2022/04/06 00:09:44;;;;;;;2.38;1.63;;;20.40;99.90;;;;;;5018645;28;20036;-68
2022/04/06 00:12:11;;;;;;;3.90;2.03;;;20.40;99.90;;;;;;5023053;28;20025;-68
2022/04/06 00:14:39;;;;;;;2.50;1.60;;;20.40;99.90;;;;;;5025583;28;20531;-67
2022/04/06 00:17:07;;;;;;;2.30;1.70;;;20.80;99.90;;;;;;5021169;28;20033;-68
2022/04/06 00:19:35;;;;;;;3.08;1.65;;;21.20;99.90;;;;;;5020144;28;20159;-67
2022/04/06 00:22:03;;;;;;;1.95;1.70;;;21.40;99.90;;;;;;5019157;28;20029;-68
2022/04/06 00:24:30;;;;;;;4.80;1.60;;;21.60;99.90;;;;;;5023252;28;20038;-69
2022/04/06 00:26:58;;;;;;;2.80;1.27;;;21.60;99.90;;;;;;5023053;28;20025;-68
2022/04/06 00:29:24;;;;;;;2.20;1.52;;;21.50;99.90;;;;;;5021763;28;20060;-69
2022/04/06 00:31:51;;;;;;;1.65;1.25;;;21.60;99.90;;;;;;5018872;28;20117;-72
2022/04/06 00:34:18;;;;;;;4.03;1.33;;;21.90;99.90;;;;;;5025717;28;20064;-71
2022/04/06 00:36:45;;;;;;;2.25;1.35;;;22.30;99.90;;;;;;5022926;28;20063;-72
2022/04/06 00:39:12;;;;;;;2.47;1.08;;;22.30;99.90;;;;;;5020732;28;20022;-70
2022/04/06 00:41:39;;;;;;;2.92;1.25;;;22.30;99.90;;;;;;5019161;28;20252;-70
2022/04/06 00:44:17;;;;;;;1.10;1.00;;;22.40;99.90;;;;;;5025532;28;20065;-69
2022/04/06 00:46:46;;;;;;;2.50;1.48;;;22.30;99.90;;;;;;5025054;28;20755;-70
2022/04/06 00:49:14;;;;;;;2.80;1.33;;;22.00;99.90;;;;;;5022402;28;20115;-69
2022/04/06 00:51:46;;;;;;;1.92;1.63;;;21.80;99.90;;;;;;5019121;28;20026;-68
2022/04/06 00:54:17;;;;;;;3.97;1.23;;;21.90;99.90;;;;;;5030128;28;20030;-67
2022/04/06 00:56:45;;;;;;;2.33;1.58;;;21.60;99.90;;;;;;5025947;28;20651;-68
2022/04/06 00:59:14;;;;;;;1.98;1.45;;;21.10;99.90;;;;;;5019200;28;20030;-67
2022/04/06 01:01:42;;;;;;;4.68;1.70;;;20.90;99.90;;;;;;5023133;28;20064;-69
2022/04/06 01:04:08;;;;;;;3.35;1.27;;;21.10;99.90;;;;;;5023162;28;20033;-70
2022/04/06 01:06:35;;;;;;;2.67;1.17;;;21.40;99.90;;;;;;5025901;28;20021;-70
2022/04/06 01:09:02;;;;;;;2.17;1.27;;;21.40;99.90;;;;;;5019208;28;20029;-68
2022/04/06 01:11:29;;;;;;;3.08;1.02;;;21.10;99.90;;;;;;5019301;28;20025;-67
2022/04/06 01:13:57;;;;;;;6.70;1.98;;;20.80;99.90;;;;;;5021965;28;20037;-70
2022/04/06 01:16:24;;;;;;;5.35;1.52;;;20.70;99.90;;;;;;5022797;28;20033;-70
2022/04/06 01:18:51;;;;;;;2.85;1.80;;;20.60;99.90;;;;;;5024779;28;21047;-69
2022/04/06 01:21:18;;;;;;;1.95;1.15;;;20.60;99.90;;;;;;5017165;28;20020;-70
2022/04/06 01:23:46;;;;;;;3.55;1.50;;;20.70;99.90;;;;;;5020670;28;20058;-69
2022/04/06 01:26:13;;;;;;;1.60;1.00;;;21.10;99.90;;;;;;5021850;28;20018;-70
2022/04/06 01:28:41;;;;;;;2.08;1.17;;;21.20;99.90;;;;;;5021340;28;20288;-70
2022/04/06 01:31:09;;;;;;;2.72;1.15;;;21.00;99.90;;;;;;5019479;28;20364;-68
2022/04/06 01:33:36;;;;;;;2.22;1.13;;;20.90;99.90;;;;;;5020736;28;20604;-67
2022/04/06 01:36:03;;;;;;;4.80;1.13;;;20.90;99.90;;;;;;5023315;28;20056;-69
2022/04/06 01:38:30;;;;;;;2.42;1.30;;;21.00;99.90;;;;;;5024863;28;20585;-70
2022/04/06 01:40:57;;;;;;;2.97;1.30;;;21.20;99.90;;;;;;5020155;28;20054;-67
2022/04/06 01:43:24;;;;;;;3.75;1.80;;;21.40;99.90;;;;;;5021802;28;20684;-69
2022/04/06 01:45:51;;;;;;;2.83;0.93;;;21.50;99.90;;;;;;5023730;28;20464;-69
2022/04/06 01:48:19;;;;;;;2.40;1.00;;;21.40;99.90;;;;;;5023445;28;20046;-68
2022/04/06 01:53:31;;;;;;;2.45;0.82;;;21.40;99.90;;;;;;5021037;28;20395;-69
2022/04/06 01:55:58;;;;;;;4.03;0.98;;;21.30;99.90;;;;;;5019350;28;20030;-69
2022/04/06 01:58:25;;;;;;;4.13;1.13;;;21.10;99.90;;;;;;5024131;28;20034;-68
2022/04/06 02:00:53;;;;;;;2.08;0.90;;;20.80;99.90;;;;;;5022310;28;20037;-68
2022/04/06 02:03:20;;;;;;;2.25;0.90;;;20.90;99.90;;;;;;5020074;28;20029;-71
2022/04/06 02:05:47;;;;;;;1.52;1.40;;;20.70;99.90;;;;;;5019820;28;20021;-69
2022/04/06 02:08:15;;;;;;;3.45;0.88;;;20.80;99.90;;;;;;5024813;28;20105;-69
2022/04/06 02:10:42;;;;;;;1.80;0.88;;;20.70;99.90;;;;;;5021149;28;20032;-66
2022/04/06 02:13:09;;;;;;;1.58;0.80;;;20.60;99.90;;;;;;5025815;28;20017;-70
2022/04/06 02:15:37;;;;;;;1.75;0.85;;;20.40;99.90;;;;;;5021722;28;20026;-69
2022/04/06 02:18:04;;;;;;;2.50;1.20;;;20.20;99.90;;;;;;5024772;28;20258;-68
2022/04/06 02:20:31;;;;;;;0.93;0.82;;;20.00;99.90;;;;;;5020605;28;20033;-69
2022/04/06 02:22:58;;;;;;;3.65;0.90;;;20.00;99.90;;;;;;5025156;28;20033;-69
2022/04/06 02:25:26;;;;;;;3.13;0.95;;;20.00;99.90;;;;;;5024718;28;20044;-70
2022/04/06 02:27:54;;;;;;;1.80;0.98;;;20.00;99.90;;;;;;5022607;28;20034;-75
2022/04/06 02:30:21;;;;;;;2.00;0.80;;;20.00;99.90;;;;;;5021821;28;20076;-73
2022/04/06 02:32:50;;;;;;;3.60;0.95;;;19.90;99.90;;;;;;5024319;28;20026;-69
2022/04/06 02:35:18;;;;;;;2.65;1.10;;;19.90;99.90;;;;;;5020936;28;20040;-69
2022/04/06 02:37:45;;;;;;;1.80;0.80;;;20.00;99.90;;;;;;5026070;28;20068;-70
2022/04/06 02:40:14;;;;;;;2.95;0.77;;;19.90;99.90;;;;;;5024539;28;20038;-69
2022/04/06 02:42:41;;;;;;;1.67;0.90;;;19.80;99.90;;;;;;5030114;28;20033;-66
2022/04/06 02:45:08;;;;;;;1.55;0.82;;;19.70;99.90;;;;;;5027740;28;20029;-68
2022/04/06 02:47:36;;;;;;;2.33;1.00;;;19.70;99.90;;;;;;5027679;28;20025;-68
2022/04/06 02:50:05;;;;;;;3.63;1.00;;;19.70;99.90;;;;;;5025341;28;20021;-68
2022/04/06 02:52:32;;;;;;;1.75;1.10;;;19.70;99.90;;;;;;5032781;28;20021;-68
2022/04/06 02:54:59;;;;;;;2.85;1.10;;;19.70;99.90;;;;;;5029112;28;20464;-68
2022/04/06 02:57:26;;;;;;;3.25;1.23;;;19.80;99.90;;;;;;5026224;28;20025;-70
2022/04/06 02:59:53;;;;;;;3.90;1.77;;;19.90;99.90;;;;;;5024495;28;20030;-69
2022/04/06 03:02:20;;;;;;;4.10;3.45;;;20.00;99.90;;;;;;5031978;28;20056;-69
2022/04/06 03:04:47;;;;;;;3.83;1.17;;;19.80;99.90;;;;;;5026404;28;20027;-70
2022/04/06 03:07:19;;;;;;;2.67;1.65;;;19.70;99.90;;;;;;5032735;28;20013;-69
2022/04/06 03:09:46;;;;;;;1.00;0.80;;;19.50;99.90;;;;;;5023878;28;20025;-70
2022/04/06 03:12:13;;;;;;;2.10;1.02;;;19.40;99.90;;;;;;5029309;28;20156;-69
2022/04/06 03:14:40;;;;;;;2.90;1.52;;;19.40;99.90;;;;;;5032023;28;20033;-70
2022/04/06 03:17:08;;;;;;;2.13;1.40;;;19.30;99.90;;;;;;5027724;28;20029;-69
2022/04/06 03:19:35;;;;;;;1.85;1.35;;;19.20;99.90;;;;;;5026754;28;20114;-70
2022/04/06 03:22:03;;;;;;;4.03;2.00;;;19.00;99.90;;;;;;5024474;28;20033;-71
2022/04/06 03:24:30;;;;;;;2.65;1.40;;;19.10;99.90;;;;;;5027532;28;20473;-70
2022/04/06 03:26:57;;;;;;;1.67;1.35;;;19.20;99.90;;;;;;5029069;28;20112;-69
2022/04/06 03:29:24;;;;;;;5.63;1.73;;;19.10;99.90;;;;;;5024708;28;20029;-69
2022/04/06 03:31:51;;;;;;;4.40;2.05;;;18.90;99.90;;;;;;5027074;28;20022;-70
2022/04/06 03:34:18;;;;;;;6.80;4.40;;;18.80;99.90;;;;;;5030141;28;20088;-71
2022/04/06 03:36:45;;;;;;;6.97;2.25;;;18.80;99.90;;;;;;5023395;28;20044;-70
2022/04/06 03:39:12;;;;;;;3.50;2.38;;;18.80;99.90;;;;;;5029338;28;20021;-71
2022/04/06 03:41:39;;;;;;;4.32;2.58;;;18.80;99.90;;;;;;5030408;28;20038;-70
2022/04/06 03:44:06;;;;;;;2.55;2.00;;;18.70;99.90;;;;;;5022950;28;20042;-69
2022/04/06 03:46:33;;;;;;;7.15;2.63;;;18.80;99.90;;;;;;5029579;28;20024;-69
2022/04/06 03:48:59;;;;;;;3.08;2.78;;;18.70;99.90;;;;;;5031490;28;20029;-69
2022/04/06 03:51:26;;;;;;;6.43;2.95;;;18.80;99.90;;;;;;5018104;28;20033;-70
2022/04/06 03:53:53;;;;;;;5.25;2.60;;;18.80;99.90;;;;;;5026725;28;20037;-69
2022/04/06 03:56:21;;;;;;;3.88;2.38;;;18.70;99.90;;;;;;5027411;28;20022;-69
2022/04/06 03:58:47;;;;;;;13.75;10.38;;;18.70;99.90;;;;;;5025918;28;20026;-67
2022/04/06 04:01:15;;;;;;;3.67;2.50;;;18.70;99.90;;;;;;5029637;28;20354;-68
2022/04/06 04:03:42;;;;;;;3.35;2.42;;;18.70;99.90;;;;;;5024684;28;20108;-69
2022/04/06 04:06:09;;;;;;;3.47;1.80;;;18.70;99.90;;;;;;5030991;28;20068;-68
2022/04/06 04:08:36;;;;;;;5.53;2.20;;;18.70;99.90;;;;;;5030779;28;20037;-67
2022/04/06 04:11:04;;;;;;;3.90;2.30;;;18.50;99.90;;;;;;5035144;28;20021;-65
2022/04/06 04:13:31;;;;;;;4.47;2.53;;;18.50;99.90;;;;;;5031416;28;20365;-68
2022/04/06 04:15:58;;;;;;;3.38;2.15;;;18.50;99.90;;;;;;5028158;28;20038;-71
2022/04/06 04:18:28;;;;;;;3.65;2.50;;;18.50;99.90;;;;;;5033394;28;20033;-71
2022/04/06 04:23:42;;;;;;;6.18;3.33;;;18.40;99.90;;;;;;4964945;28;20047;-69
2022/04/06 04:26:09;;;;;;;3.72;2.58;;;18.40;99.90;;;;;;4972013;28;20088;-65
2022/04/06 04:28:36;;;;;;;4.97;2.85;;;18.40;99.90;;;;;;4971468;28;20074;-65
2022/04/06 04:31:03;;;;;;;4.72;2.60;;;18.30;99.90;;;;;;4973787;28;20740;-73
2022/04/06 04:33:30;;;;;;;4.75;2.80;;;18.30;99.90;;;;;;4969781;28;20118;-68
2022/04/06 04:35:58;;;;;;;5.82;2.65;;;18.30;99.90;;;;;;4975546;28;20174;-65
2022/04/06 04:38:24;;;;;;;6.32;2.30;;;18.20;99.90;;;;;;4972809;28;20082;-69
2022/04/06 04:40:51;;;;;;;4.05;2.45;;;18.20;99.90;;;;;;4974314;28;20066;-73
2022/04/06 04:43:18;;;;;;;3.85;2.30;;;18.20;99.90;;;;;;4969247;28;20114;-69
2022/04/06 04:45:45;;;;;;;2.90;2.53;;;18.30;99.90;;;;;;4974834;28;20027;-68
2022/04/06 04:48:12;;;;;;;3.17;2.35;;;18.30;99.90;;;;;;4969039;28;20053;-68
2022/04/06 04:50:39;;;;;;;4.10;2.40;;;18.20;99.90;;;;;;4972416;28;20100;-68
2022/04/06 04:53:06;;;;;;;3.50;2.30;;;18.20;99.90;;;;;;4971626;28;20026;-68
2022/04/06 04:55:34;;;;;;;3.70;2.20;;;18.10;99.90;;;;;;4975487;28;20038;-73
2022/04/06 04:58:01;;;;;;;5.65;2.85;;;18.10;99.90;;;;;;4972340;28;20039;-68
2022/04/06 05:00:28;;;;;;;5.32;2.85;;;18.10;99.90;;;;;;4995684;28;20037;-68
2022/04/06 05:02:55;;;;;;;4.70;2.75;;;18.10;99.90;;;;;;5033728;28;20025;-72
2022/04/06 05:05:22;;;;;;;4.85;2.88;;;18.10;99.90;;;;;;5033073;28;20025;-72
2022/04/06 05:07:48;;;;;;;4.20;2.88;;;18.00;99.90;;;;;;5033310;28;20026;-72
2022/04/06 05:10:15;;;;;;;4.65;3.33;;;18.00;99.90;;;;;;5030406;28;20026;-69
2022/04/06 05:12:45;;;;;;;6.45;3.08;;;17.90;99.90;;;;;;5034239;28;20078;-66
2022/04/06 05:15:12;;;;;;;4.57;2.90;;;17.80;99.90;;;;;;5026724;28;20090;-69
2022/04/06 05:17:39;;;;;;;6.38;3.53;;;17.80;99.90;;;;;;5023325;28;20088;-70
2022/04/06 05:20:10;;;;;;;6.47;3.10;;;17.80;99.90;;;;;;5027852;28;20025;-68
2022/04/06 05:22:37;;;;;;;6.47;3.10;;;17.80;99.90;;;;;;5033592;28;20025;-69
2022/04/06 05:25:07;;;;;;;6.03;3.65;;;17.70;99.90;;;;;;5029818;28;20076;-65
2022/04/06 05:28:00;;;;;;;5.45;3.13;;;17.70;99.90;;;;;;5023909;28;20049;-68
2022/04/06 05:30:29;;;;;;;4.53;3.20;;;17.70;99.90;;;;;;5020037;28;20152;-69
2022/04/06 05:32:57;;;;;;;5.85;3.00;;;17.70;99.90;;;;;;5024601;28;20038;-66
2022/04/06 05:35:26;;;;;;;5.63;3.83;;;17.60;99.90;;;;;;5022983;28;20460;-65
2022/04/06 05:37:55;;;;;;;4.47;3.10;;;17.60;99.90;;;;;;5021979;28;20657;-67
2022/04/06 05:40:22;;;;;;;6.07;4.70;;;17.60;99.90;;;;;;5021134;28;20036;-68
2022/04/06 05:42:50;;;;;;;7.03;3.55;;;17.60;99.90;;;;;;5021280;28;20116;-66
2022/04/06 05:45:17;;;;;;;3.75;3.10;;;17.60;99.90;;;;;;5018259;28;20025;-67
2022/04/06 05:47:44;;;;;;;5.32;3.10;;;17.60;99.90;;;;;;5015108;28;20772;-67
2022/04/06 05:50:12;;;;;;;4.55;3.63;;;17.70;99.90;;;;;;5017540;28;20028;-67
2022/04/06 05:52:40;;;;;;;4.85;4.28;;;17.70;99.90;;;;;;5017469;28;20029;-65
2022/04/06 05:55:07;;;;;;;6.35;3.90;;;17.80;99.90;;;;;;5018868;28;20094;-67
2022/04/06 05:57:34;;;;;;;3.75;3.05;;;17.80;99.90;;;;;;5018610;28;20029;-66
2022/04/06 06:00:01;;;;;;;5.28;3.17;;;17.80;99.90;;;;;;5020884;28;20108;-67
2022/04/06 06:02:29;;;;;;;5.30;3.10;;;17.80;99.90;;;;;;5018304;28;20040;-65
2022/04/06 06:04:56;;;;;;;5.75;4.05;;;17.70;99.90;;;;;;5016729;28;20066;-69
2022/04/06 06:07:23;;;;;;;5.07;3.28;;;17.70;99.90;;;;;;5017207;28;20075;-68
2022/04/06 06:09:50;;;;;;;4.80;2.70;;;17.70;99.90;;;;;;5018256;28;20029;-66
2022/04/06 06:12:16;;;;;;;6.13;3.38;;;17.70;99.90;;;;;;5015865;28;20138;-68
2022/04/06 06:14:44;;;;;;;6.65;3.45;;;17.70;99.90;;;;;;5013245;28;20977;-66
2022/04/06 06:17:11;;;;;;;4.68;3.20;;;17.70;99.90;;;;;;5023158;28;20368;-67
2022/04/06 06:19:38;;;;;;;6.30;3.00;;;17.60;99.90;;;;;;5019271;28;20528;-68
2022/04/06 06:22:05;;;;;;;4.43;3.33;;;17.70;99.90;;;;;;5019824;28;20467;-67
2022/04/06 06:24:32;;;;;;;4.63;3.13;;;17.70;99.90;;;;;;5020682;28;20526;-68
2022/04/06 06:26:59;;;;;;;5.05;3.60;;;17.60;99.90;;;;;;5019202;28;20385;-68
2022/04/06 06:29:26;;;;;;;7.10;3.60;;;17.60;99.90;;;;;;5019403;28;20065;-70
2022/04/06 06:31:54;;;;;;;4.13;3.13;;;17.60;99.90;;;;;;5018236;28;20045;-66
2022/04/06 06:34:21;;;;;;;5.07;3.58;;;17.60;99.90;;;;;;5020452;28;20034;-68
2022/04/06 06:36:48;;;;;;;5.13;3.10;;;17.60;99.90;;;;;;5018822;28;20037;-69
2022/04/06 06:39:15;;;;;;;6.00;3.53;;;17.50;99.90;;;;;;5026623;28;20128;-69
2022/04/06 06:41:43;;;;;;;6.55;4.18;;;17.60;99.90;;;;;;5026492;28;20029;-69
2022/04/06 06:44:10;;;;;;;6.47;4.90;;;17.60;99.90;;;;;;5033117;28;20031;-68
2022/04/06 06:46:37;;;;;;;12.20;9.98;;;17.60;99.90;;;;;;5026926;28;20028;-68
2022/04/06 06:49:03;;;;;;;13.82;12.15;;;17.60;99.90;;;;;;5025591;28;20113;-67
2022/04/06 06:51:34;;;;;;;10.68;9.65;;;17.60;99.90;;;;;;5019233;28;20029;-69
2022/04/06 06:54:01;;;;;;;9.63;8.10;;;17.60;99.90;;;;;;5024297;28;20026;-67
2022/04/06 06:56:28;;;;;;;12.15;9.10;;;17.60;99.90;;;;;;5032009;28;20029;-66
2022/04/06 06:58:55;;;;;;;10.18;6.15;;;17.60;99.90;;;;;;5025449;28;20069;-75
2022/04/06 07:01:22;;;;;;;6.18;4.60;;;17.60;99.90;;;;;;5023992;28;20029;-67
2022/04/06 07:03:49;;;;;;;4.85;2.85;;;17.50;99.90;;;;;;5016572;28;20136;-67
2022/04/06 07:06:17;;;;;;;3.15;2.33;;;17.50;99.90;;;;;;5019063;28;20108;-67
2022/04/06 07:08:44;;;;;;;4.40;2.60;;;17.50;99.90;;;;;;5021569;28;20032;-66
2022/04/06 07:11:11;;;;;;;4.53;2.78;;;17.60;99.90;;;;;;5020034;28;20025;-67
2022/04/06 07:13:38;;;;;;;6.07;4.53;;;17.50;99.90;;;;;;5018272;28;20030;-68
2022/04/06 07:16:06;;;;;;;11.25;8.63;;;17.60;99.90;;;;;;5020083;28;20029;-67
2022/04/06 07:18:34;;;;;;;8.23;7.43;;;17.60;99.90;;;;;;5016508;28;20029;-66
2022/04/06 07:21:01;;;;;;;8.00;6.10;;;17.50;99.90;;;;;;5019582;28;20033;-67
2022/04/06 07:23:29;;;;;;;8.68;7.82;;;17.50;99.90;;;;;;5019608;28;20039;-66
2022/04/06 07:25:56;;;;;;;9.30;7.55;;;17.60;99.90;;;;;;5017931;28;20045;-64
2022/04/06 07:28:23;;;;;;;11.52;8.15;;;17.60;99.90;;;;;;5019511;28;20060;-67
2022/04/06 07:30:50;;;;;;;11.40;9.75;;;17.60;99.90;;;;;;5020927;28;20463;-67
2022/04/06 07:33:17;;;;;;;10.98;9.95;;;17.60;99.90;;;;;;5021068;28;20076;-66
2022/04/06 07:35:46;;;;;;;10.40;8.98;;;17.60;99.90;;;;;;5019611;28;20026;-66
2022/04/06 07:38:14;;;;;;;5.32;4.70;;;17.60;99.90;;;;;;5020486;28;20038;-66
2022/04/06 07:40:41;;;;;;;6.72;6.03;;;17.60;99.90;;;;;;5019704;28;20038;-66
2022/04/06 07:43:10;;;;;;;7.95;6.82;;;17.60;99.90;;;;;;5018954;28;20108;-67
2022/04/06 07:45:37;;;;;;;7.88;4.90;;;17.60;99.90;;;;;;5019759;28;20203;-67
2022/04/06 07:48:05;;;;;;;9.43;5.82;;;17.70;99.90;;;;;;5020628;28;20018;-67
2022/04/06 07:50:32;;;;;;;15.93;6.22;;;17.90;99.90;;;;;;5017685;28;20021;-65
2022/04/06 07:52:59;;;;;;;8.05;5.30;;;17.80;99.90;;;;;;5021043;28;20086;-69
2022/04/06 07:55:26;;;;;;;12.27;8.95;;;17.90;99.90;;;;;;5019237;28;20040;-69
2022/04/06 07:57:53;;;;;;;16.00;12.55;;;17.90;99.90;;;;;;5020493;28;20479;-68
2022/04/06 08:00:20;;;;;;;17.77;13.05;;;18.00;99.90;;;;;;5019658;28;20035;-72
2022/04/06 08:02:49;;;;;;;14.30;11.90;;;18.00;99.90;;;;;;5020677;28;20033;-71
2022/04/06 08:05:17;;;;;;;15.95;14.45;;;18.00;99.90;;;;;;5020168;28;20111;-69
2022/04/06 08:07:45;;;;;;;15.80;14.27;;;17.90;99.90;;;;;;5021096;28;20033;-68
2022/04/06 08:10:14;;;;;;;16.08;14.48;;;17.90;99.90;;;;;;5019916;28;20041;-67
2022/04/06 08:12:42;;;;;;;16.10;14.60;;;17.80;99.90;;;;;;5020893;28;20025;-71
2022/04/06 08:15:09;;;;;;;14.15;12.85;;;17.90;99.90;;;;;;5018346;28;20029;-68
2022/04/06 08:17:45;;;;;;;15.25;13.35;;;18.00;99.90;;;;;;5020254;28;20029;-75
2022/04/06 08:20:14;;;;;;;15.88;14.20;;;18.00;99.90;;;;;;5017485;28;20543;-72
2022/04/06 08:22:42;;;;;;;15.43;13.88;;;18.00;99.90;;;;;;5015801;28;20111;-70
2022/04/06 08:25:09;;;;;;;12.00;10.77;;;17.90;99.90;;;;;;5019893;28;20048;-69
2022/04/06 08:27:40;;;;;;;13.70;10.45;;;18.00;99.90;;;;;;5019473;28;20447;-69
2022/04/06 08:30:09;;;;;;;12.75;9.18;;;18.00;99.90;;;;;;5020151;28;20095;-68
2022/04/06 08:32:36;;;;;;;7.57;5.93;;;18.10;99.90;;;;;;5019385;28;20106;-65
2022/04/06 08:35:04;;;;;;;7.82;6.53;;;18.00;99.90;;;;;;5020281;28;20068;-68
2022/04/06 08:37:31;;;;;;;9.75;8.75;;;18.00;99.90;;;;;;5019667;28;20045;-67
2022/04/06 08:39:59;;;;;;;14.93;13.38;;;17.90;99.90;;;;;;5019082;28;20087;-70
2022/04/06 08:42:27;;;;;;;13.98;12.57;;;17.90;99.90;;;;;;5019448;28;20068;-69
2022/04/06 08:44:54;;;;;;;14.57;12.43;;;17.90;99.90;;;;;;5017945;28;20041;-70
2022/04/06 08:47:22;;;;;;;13.32;11.23;;;17.80;99.90;;;;;;5020360;28;20383;-73
2022/04/06 08:49:50;;;;;;;11.30;10.10;;;17.70;99.90;;;;;;5017067;28;20025;-69
2022/04/06 08:52:18;;;;;;;17.23;12.65;;;17.60;99.90;;;;;;5019820;28;20029;-69
2022/04/06 08:54:45;;;;;;;14.30;12.88;;;17.70;99.90;;;;;;5019740;28;20040;-70
2022/04/06 08:57:13;;;;;;;12.85;11.40;;;17.60;99.90;;;;;;5019918;28;20145;-70
2022/04/06 08:59:40;;;;;;;12.60;11.30;;;17.60;99.90;;;;;;5014504;28;20037;-70
2022/04/06 09:02:10;;;;;;;15.63;12.05;;;17.60;99.90;;;;;;5018102;28;20769;-73
2022/04/06 09:04:40;;;;;;;10.98;9.02;;;17.60;99.90;;;;;;5015159;28;20033;-69
2022/04/06 09:07:09;;;;;;;12.27;10.02;;;17.60;99.90;;;;;;5017670;28;20061;-67
2022/04/06 09:09:37;;;;;;;8.63;7.80;;;17.50;99.90;;;;;;5017113;28;20029;-73
2022/04/06 09:12:08;;;;;;;11.57;9.90;;;17.50;99.90;;;;;;5017814;28;20554;-69
2022/04/06 09:14:35;;;;;;;8.90;7.68;;;17.40;99.90;;;;;;5015761;28;20033;-69
2022/04/06 09:17:04;;;;;;;9.70;8.23;;;17.40;99.90;;;;;;5018796;28;20080;-69
2022/04/06 09:19:35;;;;;;;5.07;4.00;;;17.40;99.90;;;;;;5016001;28;20515;-69
2022/04/06 09:22:07;;;;;;;9.73;5.28;;;17.40;99.90;;;;;;5026207;28;20033;-69
2022/04/06 09:24:34;;;;;;;5.60;3.95;;;17.40;99.90;;;;;;5015137;28;20032;-68
2022/04/06 09:27:03;;;;;;;5.90;3.90;;;17.30;99.90;;;;;;5015704;28;20060;-70
2022/04/06 09:29:35;;;;;;;4.10;3.70;;;17.30;99.90;;;;;;5017393;28;20592;-67
2022/04/06 09:32:10;;;;;;;4.78;4.35;;;17.30;99.90;;;;;;5016448;28;20017;-69
2022/04/06 09:34:42;;;;;;;6.05;4.68;;;17.30;99.90;;;;;;5014985;28;20033;-68
2022/04/06 09:37:31;;;;;;;7.13;3.13;;;17.30;99.90;;;;;;5017256;28;20072;-68
2022/04/06 09:40:08;;;;;;;5.55;4.93;;;17.30;99.90;;;;;;5016652;28;20029;-67
2022/04/06 09:42:35;;;;;;;6.55;3.83;;;17.30;99.90;;;;;;5015244;28;20039;-68
2022/04/06 09:47:58;;;;;;;2.85;2.00;;;17.30;99.90;;;;;;5014888;28;20064;-68
2022/04/06 09:50:30;;;;;;;5.07;2.45;;;17.30;99.90;;;;;;5017196;28;20080;-68
2022/04/06 09:52:57;;;;;;;2.55;1.65;;;17.30;99.90;;;;;;5017935;28;20018;-68
2022/04/06 09:55:24;;;;;;;2.75;1.67;;;17.30;99.90;;;;;;5015486;28;20029;-66
2022/04/06 09:57:55;;;;;;;2.05;1.40;;;17.30;99.90;;;;;;5016110;28;20026;-66
2022/04/06 10:00:28;;;;;;;2.50;1.60;;;17.30;99.90;;;;;;5014551;28;20555;-65
2022/04/06 10:03:05;;;;;;;4.82;1.67;;;17.30;99.90;;;;;;5016850;28;20413;-67
2022/04/06 10:05:33;;;;;;;2.97;1.90;;;17.20;99.90;;;;;;5016842;28;20029;-68
2022/04/06 10:08:04;;;;;;;2.63;1.73;;;17.20;99.90;;;;;;5018897;28;20136;-66
2022/04/06 10:10:40;;;;;;;5.10;1.48;;;17.20;99.90;;;;;;5017225;28;20202;-68
2022/04/06 10:13:08;;;;;;;2.63;1.80;;;17.20;99.90;;;;;;5018984;28;20032;-66
2022/04/06 10:15:40;;;;;;;3.33;2.05;;;17.20;99.90;;;;;;5017229;28;20026;-66
2022/04/06 10:18:07;;;;;;;3.22;1.83;;;17.20;99.90;;;;;;5017525;28;20033;-66
2022/04/06 10:20:48;;;;;;;2.67;1.40;;;17.10;99.90;;;;;;5016910;28;20083;-67
2022/04/06 10:23:51;;;;;;;3.70;1.55;;;17.10;99.90;;;;;;5013924;28;20025;-66
2022/04/06 10:26:21;;;;;;;;;;;17.10;99.90;;;;;;5016352;28;20025;-65
2022/04/06 10:28:49;;;;;;;3.30;1.38;;;17.10;99.90;;;;;;5016504;28;19909;-64
2022/04/06 10:31:27;;;;;;;6.43;5.03;;;17.10;99.90;;;;;;5016755;28;20645;-65
2022/04/06 10:34:24;;;;;;;2.78;1.88;;;17.00;99.90;;;;;;5015304;28;20119;-64
2022/04/06 10:37:11;;;;;;;3.60;1.95;;;17.10;99.90;;;;;;5000789;23;20444;-64
2022/04/06 10:40:04;;;;;;;4.45;1.80;;;17.10;99.90;;;;;;5009674;28;20530;-64
2022/04/06 10:42:32;;;;;;;3.05;1.65;;;17.10;99.90;;;;;;5010414;28;20128;-64
2022/04/06 10:45:00;;;;;;;3.70;2.40;;;17.10;99.90;;;;;;5010145;28;20508;-65
2022/04/06 10:47:29;;;;;;;3.80;1.75;;;17.20;99.90;;;;;;5010532;28;20455;-65
2022/04/06 10:50:11;;;;;;;2.63;1.58;;;17.10;99.90;;;;;;5013301;28;20037;-65
2022/04/06 10:52:39;;;;;;;7.70;6.50;;;17.10;99.90;;;;;;5030050;28;20103;-67
2022/04/06 10:55:11;;;;;;;3.90;1.38;;;17.10;99.90;;;;;;5018603;28;20353;-67
2022/04/06 10:57:56;;;;;;;;;;;17.10;99.90;;;;;;5016904;28;20108;-64
2022/04/06 11:00:25;;;;;;;3.90;1.65;;;17.10;99.90;;;;;;5016320;28;19912;-66
2022/04/06 11:02:53;;;;;;;2.00;1.60;;;17.10;99.90;;;;;;5020022;28;20546;-64
2022/04/06 11:05:46;;;;;;;2.45;1.58;;;17.10;99.90;;;;;;5021450;28;20030;-68
2022/04/06 11:11:45;;;;;;;2.65;1.77;;;17.10;99.90;;;;;;5020822;28;20569;-64
2022/04/06 11:14:27;;;;;;;1.70;1.23;;;17.00;99.90;;;;;;5018945;28;20021;-63
2022/04/06 11:16:54;;;;;;;3.35;1.90;;;17.00;99.90;;;;;;5019972;28;20022;-64
2022/04/06 11:19:21;;;;;;;1.45;1.23;;;17.00;99.90;;;;;;5020079;28;20170;-63
2022/04/06 11:21:56;;;;;;;5.07;2.58;;;17.00;99.90;;;;;;5020085;28;20040;-65
2022/04/06 11:24:27;;;;;;;1.73;1.52;;;17.10;99.90;;;;;;5019916;28;20021;-63
2022/04/06 11:26:55;;;;;;;1.85;1.45;;;17.10;99.90;;;;;;5019074;28;20499;-63
2022/04/06 11:29:28;;;;;;;2.83;1.60;;;17.10;99.90;;;;;;5020242;28;20029;-63
2022/04/06 11:32:00;;;;;;;3.95;2.28;;;17.20;99.90;;;;;;5020499;28;20539;-66
2022/04/06 11:34:38;;;;;;;1.90;1.45;;;17.10;99.90;;;;;;5019555;28;20033;-65
2022/04/06 11:37:07;;;;;;;2.33;1.98;;;17.10;99.90;;;;;;5020586;28;20041;-64
2022/04/06 11:39:35;;;;;;;1.77;1.67;;;17.20;99.90;;;;;;5019844;28;20036;-66
2022/04/06 11:42:04;;;;;;;5.50;2.00;;;17.20;99.90;;;;;;5018944;28;20472;-63
2022/04/06 11:44:32;;;;;;;2.38;1.80;;;17.20;99.90;;;;;;5017546;28;20774;-64
2022/04/06 11:47:00;;;;;;;2.85;1.80;;;17.20;99.90;;;;;;5018371;28;20087;-63
2022/04/06 11:49:29;;;;;;;2.70;1.90;;;17.20;99.90;;;;;;5019948;28;20033;-65
2022/04/06 11:51:59;;;;;;;4.45;1.98;;;17.20;99.90;;;;;;5019418;28;20030;-64
2022/04/06 11:54:27;;;;;;;2.17;1.67;;;17.20;99.90;;;;;;5019340;28;20026;-64
2022/04/06 11:56:55;;;;;;;4.22;2.05;;;17.20;99.90;;;;;;5022392;28;20445;-65
2022/04/06 11:59:23;;;;;;;2.58;1.80;;;17.20;99.90;;;;;;5020982;28;20116;-64
2022/04/06 12:01:51;;;;;;;2.22;1.90;;;17.30;99.90;;;;;;5022432;28;20032;-64
2022/04/06 12:04:23;;;;;;;3.17;2.47;;;17.30;99.90;;;;;;5022122;28;20025;-66
2022/04/06 12:06:54;;;;;;;4.03;2.03;;;17.30;99.90;;;;;;5022522;28;20033;-66
2022/04/06 12:09:25;;;;;;;3.15;2.10;;;17.30;99.90;;;;;;5017761;28;20542;-64
2022/04/06 12:11:53;;;;;;;6.88;2.15;;;17.30;99.90;;;;;;5019788;28;20543;-65
2022/04/06 12:14:21;;;;;;;2.88;1.98;;;17.30;99.90;;;;;;5019518;28;20111;-64
2022/04/06 12:16:51;;;;;;;2.78;1.90;;;17.20;99.90;;;;;;5020132;28;20114;-66
2022/04/06 12:19:19;;;;;;;2.45;1.80;;;17.20;99.90;;;;;;5024165;28;20441;-65
2022/04/06 12:21:48;;;;;;;2.25;1.98;;;17.20;99.90;;;;;;5022798;28;20094;-66
2022/04/06 12:24:18;;;;;;;2.85;1.88;;;17.20;99.90;;;;;;5019729;28;20025;-66
2022/04/06 12:26:54;;;;;;;2.40;1.80;;;17.20;99.90;;;;;;5020590;28;20025;-67
2022/04/06 12:29:21;;;;;;;3.28;1.77;;;17.10;99.90;;;;;;5022624;28;20080;-65
2022/04/06 12:31:53;;;;;;;4.05;1.80;;;17.20;99.90;;;;;;5015954;28;20045;-67
2022/04/06 12:34:30;;;;;;;2.28;1.50;;;17.20;99.90;;;;;;5021689;28;20549;-64
2022/04/06 12:36:58;;;;;;;3.97;1.70;;;17.20;99.90;;;;;;5016856;28;20042;-65
2022/04/06 12:39:25;;;;;;;2.58;1.48;;;17.20;99.90;;;;;;5017569;28;20081;-63
2022/04/06 12:42:07;;;;;;;2.22;1.50;;;17.20;99.90;;;;;;5020988;28;20435;-63
2022/04/06 12:44:37;;;;;;;3.17;1.27;;;17.30;99.90;;;;;;5018593;28;20060;-66
2022/04/06 12:47:17;;;;;;;3.47;1.83;;;17.40;99.90;;;;;;5015986;28;20523;-65
2022/04/06 12:49:44;;;;;;;3.70;1.33;;;17.30;99.90;;;;;;5019058;28;20039;-66
2022/04/06 12:52:25;;;;;;;3.58;1.98;;;17.20;99.90;;;;;;5014891;28;20559;-66
2022/04/06 12:55:01;;;;;;;5.88;3.40;;;17.20;99.90;;;;;;5016953;28;20048;-66
2022/04/06 12:57:32;;;;;;;4.18;3.63;;;17.30;99.90;;;;;;5021275;28;20030;-65
2022/04/06 13:00:01;;;;;;;6.72;3.35;;;17.30;99.90;;;;;;5024068;28;20048;-65
2022/04/06 13:02:29;;;;;;;4.13;3.15;;;17.30;99.90;;;;;;5023683;28;20022;-66
2022/04/06 13:04:58;;;;;;;3.15;2.83;;;17.30;99.90;;;;;;5025723;28;20034;-67
2022/04/06 13:07:26;;;;;;;3.97;3.28;;;17.30;99.90;;;;;;5022887;28;20013;-66